Terminal Aerodrome Forecast
Issued by NWS Nashville, TN

Home | Current Version | Previous Version | Text Only | Print | Product List | Glossary On
Versions: 1 2 3 4 5 6 7 8 9 10 11 12 13 14 15 16 17 18 19
000
FTUS44 KOHX 250500
TAFCSV
TAF
KCSV 250520Z 2506/2606 19008KT P6SM VCTS BKN050CB OVC100
      TEMPO 2506/2508 3SM TSRA OVC025CB
     FM251400 27010KT P6SM VCSH SCT007 OVC015
     FM251600 31012G22KT P6SM BKN015
     FM260000 32010G20KT P6SM SKC=

USA.gov is the U.S. government's official web portal to all federal, state and local government web resources and services.